createdAt,value
2023-04-03T00:03:30.725Z,92142.59
2023-04-03T00:08:35.118Z,92119.28
2023-04-03T00:13:39.495Z,92102.13
2023-04-03T00:18:44.122Z,92087.66
2023-04-03T00:23:47.481Z,92078.78
2023-04-03T00:28:51.764Z,92065.50
2023-04-03T00:33:54.941Z,92064.34
2023-04-03T00:38:59.610Z,92051.19
2023-04-03T00:44:02.760Z,92045.81
2023-04-03T00:49:06.195Z,92041.63
2023-04-03T00:54:09.950Z,92048.56
2023-04-03T00:59:27.717Z,92037.59
2023-04-03T01:04:41.164Z,92039.91
2023-04-03T01:09:46.670Z,92021.34
2023-04-03T01:14:55.631Z,92018.97
2023-04-03T01:20:20.945Z,92015.41
2023-04-03T01:25:24.478Z,92002.22
2023-04-03T01:30:33.966Z,91997.97
2023-04-03T01:35:39.498Z,91992.03
2023-04-03T01:40:43.705Z,91983.16
2023-04-03T01:45:48.163Z,91973.47
2023-04-03T01:50:52.187Z,91961.41
2023-04-03T01:55:56.368Z,91950.75
2023-04-03T02:01:00.521Z,91942.06
2023-04-03T02:06:04.805Z,91934.31
2023-04-03T02:11:08.780Z,91916.88
2023-04-03T02:16:13.986Z,91921.91
2023-04-03T02:21:18.841Z,91916.75
2023-04-03T02:26:22.539Z,91900.09
2023-04-03T02:31:25.641Z,91884.66
2023-04-03T02:36:31.812Z,91874.53
2023-04-03T02:41:39.420Z,91881.09
2023-04-03T02:46:49.223Z,91869.94
2023-04-03T02:51:54.614Z,91875.41
2023-04-03T02:56:59.506Z,91861.56
2023-04-03T03:02:03.205Z,91849.16
2023-04-03T03:07:07.136Z,91844.94
2023-04-03T03:12:10.356Z,91839.59
2023-04-03T03:17:14.358Z,91831.78
2023-04-03T03:22:18.199Z,91831.28
2023-04-03T03:27:24.043Z,91819.41
2023-04-03T03:32:27.268Z,91815.78
2023-04-03T03:37:31.058Z,91808.16
2023-04-03T03:42:35.058Z,91800.88
2023-04-03T03:47:39.655Z,91807.06
2023-04-03T03:52:43.833Z,91790.72
2023-04-03T03:57:48.531Z,91790.69
2023-04-03T04:02:52.352Z,91802.63
2023-04-03T04:07:59.219Z,91801.06
2023-04-03T04:13:03.994Z,91794.19
2023-04-03T04:18:08.646Z,91785.19
2023-04-03T04:23:12.819Z,91785.88
2023-04-03T04:28:17.984Z,91780.03
2023-04-03T04:33:23.235Z,91781.91
2023-04-03T04:38:27.337Z,91792.94
2023-04-03T04:43:31.577Z,91784.78
2023-04-03T04:48:36.504Z,91787.47
2023-04-03T04:53:42.438Z,91779.28
2023-04-03T04:58:49.675Z,91777.75
2023-04-03T05:03:56.254Z,91789.75
2023-04-03T05:09:00.891Z,91787.84
2023-04-03T05:14:07.872Z,91787.31
2023-04-03T05:19:13.959Z,91782.66
2023-04-03T05:24:19.190Z,91776.00
2023-04-03T05:29:23.220Z,91791.91
2023-04-03T05:34:28.081Z,91790.78
2023-04-03T05:39:33.569Z,91782.38
2023-04-03T05:44:39.162Z,91780.31
2023-04-03T05:49:42.612Z,91779.41
2023-04-03T05:54:49.469Z,91775.03
2023-04-03T05:59:58.958Z,91793.81
2023-04-03T06:05:03.915Z,91790.66
2023-04-03T06:10:08.339Z,91781.59
2023-04-03T06:15:13.143Z,91785.47
2023-04-03T06:20:17.605Z,91791.38
2023-04-03T06:25:22.498Z,91797.19
2023-04-03T06:30:26.916Z,91792.91
2023-04-03T06:35:31.861Z,91785.28
2023-04-03T06:40:36.253Z,91777.75
2023-04-03T06:45:40.155Z,91773.22
2023-04-03T06:50:44.605Z,91776.47
2023-04-03T06:55:48.873Z,91783.75
2023-04-03T07:00:52.966Z,91789.50
2023-04-03T07:05:57.211Z,91794.56
2023-04-03T07:11:00.981Z,91790.31
2023-04-03T07:16:06.326Z,91805.09
2023-04-03T07:21:09.621Z,91802.91
2023-04-03T07:26:13.368Z,91801.44
2023-04-03T07:31:19.814Z,91800.13
2023-04-03T07:36:24.526Z,91818.91
2023-04-03T07:41:28.314Z,91813.63
2023-04-03T07:46:31.691Z,91808.66
2023-04-03T07:51:35.377Z,91816.28
2023-04-03T07:56:38.922Z,91815.47
2023-04-03T08:01:43.095Z,91798.44
2023-04-03T08:06:47.759Z,91812.69
2023-04-03T08:11:54.492Z,91815.13
2023-04-03T08:16:58.347Z,91814.63
2023-04-03T08:22:04.402Z,91821.44
2023-04-03T08:27:08.162Z,91811.47
2023-04-03T08:32:12.286Z,91805.72
2023-04-03T08:37:17.604Z,91801.78
2023-04-03T08:42:43.820Z,91812.19
2023-04-03T08:48:12.233Z,91814.22
2023-04-03T08:53:29.825Z,91810.22
2023-04-03T08:58:50.791Z,91811.34
2023-04-03T09:03:54.051Z,91813.97
2023-04-03T09:09:18.298Z,91803.84
2023-04-03T09:14:37.605Z,91800.34
2023-04-03T09:20:22.264Z,91809.38
2023-04-03T09:25:38.732Z,91806.84
2023-04-03T09:30:42.766Z,91797.00
2023-04-03T09:35:48.921Z,91792.44
2023-04-03T09:41:08.770Z,91787.22
2023-04-03T09:46:30.599Z,91797.41
2023-04-03T09:51:34.782Z,91802.44
2023-04-03T09:56:39.636Z,91792.53
2023-04-03T10:01:59.320Z,91794.84
2023-04-03T10:07:03.356Z,91797.94
2023-04-03T10:12:15.703Z,91800.81
2023-04-03T10:17:25.181Z,91795.81
2023-04-03T10:22:49.339Z,91788.03
2023-04-03T10:28:16.439Z,91788.63
2023-04-03T10:33:44.852Z,91782.78
2023-04-03T10:39:07.182Z,91793.69
2023-04-03T10:44:23.140Z,91779.63
2023-04-03T10:50:05.642Z,91773.72
2023-04-03T10:55:14.867Z,91783.25
2023-04-03T11:00:24.214Z,91776.19
2023-04-03T11:05:45.928Z,91752.91
2023-04-03T11:10:52.661Z,91749.78
2023-04-03T11:15:56.727Z,91754.47
2023-04-03T11:21:06.823Z,91734.28
2023-04-03T11:26:10.660Z,91731.00
2023-04-03T11:31:43.712Z,91726.66
2023-04-03T11:37:03.461Z,91723.44
2023-04-03T11:42:17.380Z,91716.09
2023-04-03T11:47:47.242Z,91697.63
2023-04-03T11:52:50.400Z,91700.91
2023-04-03T11:58:00.269Z,91699.03
2023-04-03T12:03:03.512Z,91685.88
2023-04-03T12:08:46.447Z,91679.66
2023-04-03T12:13:53.422Z,91687.06
2023-04-03T12:18:59.927Z,91654.59
2023-04-03T12:24:10.416Z,91659.38
2023-04-03T12:29:25.044Z,91669.03
2023-04-03T12:35:03.862Z,91660.66
2023-04-03T12:40:26.087Z,91667.22
2023-04-03T12:45:31.278Z,91646.72
2023-04-03T12:50:35.668Z,91613.06
2023-04-03T12:55:39.880Z,91647.53
2023-04-03T13:00:43.934Z,91653.91
2023-04-03T13:05:47.981Z,91632.56
2023-04-03T13:11:03.808Z,91632.00
2023-04-03T13:16:11.931Z,91627.84
2023-04-03T13:21:20.643Z,91640.69
2023-04-03T13:26:27.581Z,91648.03
2023-04-03T13:31:40.236Z,91628.03
2023-04-03T13:36:56.241Z,91643.50
2023-04-03T13:42:05.178Z,91631.13
2023-04-03T13:47:25.831Z,91615.16
2023-04-03T13:52:37.150Z,91624.66
2023-04-03T13:57:55.878Z,91639.84
2023-04-03T14:02:59.690Z,91616.56
2023-04-03T14:08:03.431Z,91606.91
2023-04-03T14:13:07.060Z,91593.91
2023-04-03T14:18:18.993Z,91590.34
2023-04-03T14:23:22.536Z,91608.72
2023-04-03T14:28:26.819Z,91606.81
2023-04-03T14:33:32.425Z,91596.97
2023-04-03T14:38:36.546Z,91632.09
2023-04-03T14:43:40.144Z,91603.13
2023-04-03T14:48:44.428Z,91580.53
2023-04-03T14:53:47.593Z,91605.91
2023-04-03T14:58:54.945Z,91593.94
2023-04-03T15:03:59.080Z,91616.47
2023-04-03T15:09:04.431Z,91624.25
2023-04-03T15:14:11.278Z,91657.25
2023-04-03T15:19:15.695Z,91668.16
2023-04-03T15:24:19.336Z,91639.19
2023-04-03T15:29:23.313Z,91598.88
2023-04-03T15:34:27.011Z,91635.50
2023-04-03T15:39:30.636Z,91618.09
2023-04-03T15:44:36.030Z,91662.53
2023-04-03T15:49:40.317Z,91673.00
2023-04-03T15:54:44.003Z,91657.31
2023-04-03T15:59:47.286Z,91653.59
2023-04-03T16:04:51.926Z,91653.66
2023-04-03T16:09:56.266Z,91663.41
2023-04-03T16:15:00.016Z,91680.91
2023-04-03T16:20:04.946Z,91674.84
2023-04-03T16:25:10.539Z,91688.88
2023-04-03T16:30:14.220Z,91706.59
2023-04-03T16:35:17.737Z,91692.78
2023-04-03T16:40:22.036Z,91710.84
2023-04-03T16:45:25.935Z,91698.94
2023-04-03T16:50:30.297Z,91694.69
2023-04-03T16:55:33.998Z,91700.34
2023-04-03T17:00:38.420Z,91706.75
2023-04-03T17:05:42.232Z,91705.97
2023-04-03T17:10:46.436Z,91737.13
2023-04-03T17:15:50.783Z,91735.13
2023-04-03T17:20:55.040Z,91753.53
2023-04-03T17:25:58.689Z,91742.72
2023-04-03T17:31:04.029Z,91748.34
2023-04-03T17:36:08.382Z,91744.53
2023-04-03T17:41:12.844Z,91756.91
2023-04-03T17:46:17.882Z,91779.63
2023-04-03T17:51:24.140Z,91767.63
2023-04-03T17:56:27.651Z,91784.72
2023-04-03T18:01:35.022Z,91783.84
2023-04-03T18:06:51.477Z,91820.59
2023-04-03T18:11:56.610Z,91849.75
2023-04-03T18:17:01.341Z,91836.66
2023-04-03T18:22:09.033Z,91850.84
2023-04-03T18:27:14.919Z,91864.94
2023-04-03T18:32:20.023Z,91863.38
2023-04-03T18:37:24.428Z,91850.25
2023-04-03T18:42:28.821Z,91875.91
2023-04-03T18:47:33.717Z,91908.44
2023-04-03T18:52:37.185Z,91906.91
2023-04-03T18:57:41.086Z,91933.31
2023-04-03T19:02:45.896Z,91938.47
2023-04-03T19:07:50.608Z,91905.97
2023-04-03T19:12:53.793Z,91914.06
2023-04-03T19:17:58.159Z,91925.50
2023-04-03T19:23:02.727Z,91947.97
2023-04-03T19:28:07.103Z,91977.91
2023-04-03T19:33:10.653Z,91942.19
2023-04-03T19:38:14.276Z,91945.66
2023-04-03T19:43:18.203Z,91962.88
2023-04-03T19:48:21.785Z,92000.28
2023-04-03T19:53:29.257Z,92002.38
2023-04-03T19:58:33.857Z,92031.03
2023-04-03T20:03:37.601Z,92006.28
2023-04-03T20:08:41.189Z,92049.75
2023-04-03T20:13:44.727Z,91984.34
2023-04-03T20:18:50.385Z,91993.69
2023-04-03T20:23:55.788Z,92046.69
2023-04-03T20:29:01.548Z,92052.03
2023-04-03T20:34:05.403Z,92005.16
2023-04-03T20:39:08.889Z,92021.94
2023-04-03T20:44:12.171Z,92036.84
2023-04-03T20:49:16.841Z,92050.97
2023-04-03T20:54:20.889Z,92060.47
2023-04-03T20:59:24.733Z,92068.16
2023-04-03T21:04:53.393Z,92089.03
2023-04-03T21:10:34.497Z,92084.13
2023-04-03T21:15:46.778Z,92084.59
2023-04-03T21:20:50.656Z,92092.00
2023-04-03T21:25:54.593Z,92070.25
2023-04-03T21:30:58.572Z,92105.59
2023-04-03T21:36:03.484Z,92101.00
2023-04-03T21:41:07.826Z,92094.88
2023-04-03T21:46:11.380Z,92107.69
2023-04-03T21:51:14.693Z,92121.16
2023-04-03T21:56:18.362Z,92125.09
2023-04-03T22:01:23.091Z,92117.03
2023-04-03T22:06:27.023Z,92120.47
2023-04-03T22:11:30.736Z,92105.59
2023-04-03T22:16:46.997Z,92107.03
2023-04-03T22:21:50.107Z,92131.63
2023-04-03T22:26:54.538Z,92145.69
2023-04-03T22:31:58.304Z,92134.06
2023-04-03T22:37:02.331Z,92144.97
2023-04-03T22:42:08.052Z,92134.91
2023-04-03T22:47:11.588Z,92145.78
2023-04-03T22:52:15.182Z,92157.13
2023-04-03T22:57:19.004Z,92154.81
2023-04-03T23:02:22.701Z,92161.00
2023-04-03T23:07:26.875Z,92168.75
2023-04-03T23:12:30.590Z,92165.28
2023-04-03T23:17:37.869Z,92173.44
2023-04-03T23:22:42.688Z,92192.44
2023-04-03T23:27:53.786Z,92204.09
2023-04-03T23:32:57.334Z,92202.88
2023-04-03T23:38:01.159Z,92220.38
2023-04-03T23:43:05.149Z,92217.63
2023-04-03T23:48:09.228Z,92209.88
2023-04-03T23:53:14.977Z,92231.19
2023-04-03T23:58:18.372Z,92218.41
